MSC Divina — 3FFA5 — position and weather

sailwx.info

Track history (hours):
 
Tides and Currents Weather Stations Pressure Air Temp Water Temp Dewpoint Dewpoint Depression Visibility Wind Speed Wind Dir Waves Ship Positions

MSC Divina

Last reported at 2017-Jun-25 12:00 UTC. Time now 2017-Jun-25 15:50 UTC.
Position N 25°24' W 076°12'.

Length 333 m; draft 8.6 m.

Type: Passenger vessel. MMSI: 373178000.

Wind from 140 at 14 knots

Barometer 1033.9 mb
Air temperature 28.2 ° C
Visibility: greater than 5.4 NM
Dewpoint 25.5 ° C
Water temperature 28.2 ° C

Date/timePositionNaut miles runAvg speedWind from/ knotsBaromVisibWave heightAir tempDewpointWater temp
2017-Jun-25 12:00N 25°24' W 076°12'19217.6 140 / 141033.9 5.4 28.225.528.2
2017-Jun-25 01:05N 25°56' W 079°42'218.5
2017-Jun-25 01:00N 25°56' W 079°44'918.6
2017-Jun-25 00:31N 25°52' W 079°53'918.3
2017-Jun-25 00:01N 25°48' W 080°02'2114.7
2017-Jun-25 00:00N 25°48' W 080°00'815.7 090 / 111032.3 29.725.726.4
2017-Jun-24 23:30N 25°46' W 080°08'2 4.5
2017-Jun-24 22:57N 25°47' W 080°11'0 0.0
2017-Jun-24 22:30N 25°47' W 080°11'0 0.0
2017-Jun-24 22:00N 25°47' W 080°11'0 0.0
2017-Jun-24 21:30N 25°47' W 080°11'0 0.0
2017-Jun-24 21:00N 25°47' W 080°11'0 0.0
2017-Jun-24 20:30N 25°47' W 080°11'0 0.0
2017-Jun-24 20:00N 25°47' W 080°11'0 0.0
2017-Jun-24 19:30N 25°47' W 080°11'0 0.0
2017-Jun-24 19:00N 25°47' W 080°11'0 0.0
2017-Jun-24 18:30N 25°47' W 080°11'0 0.0
2017-Jun-24 18:00N 25°47' W 080°11'0 0.0
2017-Jun-24 17:30N 25°47' W 080°11'0 0.0
2017-Jun-24 17:00N 25°47' W 080°11'0 0.0
2017-Jun-24 16:24N 25°47' W 080°11'0 0.0
2017-Jun-24 15:57N 25°47' W 080°11'0 0.0
2017-Jun-24 15:29N 25°47' W 080°11'0 0.0
2017-Jun-24 14:59N 25°47' W 080°11'0 0.0
2017-Jun-24 13:59N 25°47' W 080°11'0 0.0
2017-Jun-24 13:29N 25°47' W 080°11'0 0.0
2017-Jun-24 12:59N 25°47' W 080°11'0 0.0
2017-Jun-24 12:29N 25°47' W 080°11'0 0.0
2017-Jun-24 11:59N 25°47' W 080°11'0 0.0
2017-Jun-24 11:26N 25°47' W 080°11'0 0.0
2017-Jun-24 10:56N 25°47' W 080°11'0 0.0
2017-Jun-24 10:30N 25°47' W 080°11'0 0.0
2017-Jun-24 10:00N 25°47' W 080°11'0 0.7
2017-Jun-24 09:30N 25°47' W 080°11'2 4.1
2017-Jun-24 09:00N 25°46' W 080°09'5 9.9
2017-Jun-24 08:30N 25°46' W 080°03'4 8.5
2017-Jun-24 08:00N 25°48' W 079°59'5 9.6
2017-Jun-24 07:30N 25°50' W 079°54'5 9.6
2017-Jun-24 07:00N 25°52' W 079°49'510.1
2017-Jun-24 06:30N 25°55' W 079°45'510.0
2017-Jun-24 06:00N 25°57' W 079°40'510.0
2017-Jun-24 05:30N 25°59' W 079°35'5 9.9
2017-Jun-24 05:00N 26°02' W 079°30'510.0
2017-Jun-24 04:30N 26°04' W 079°25'7717.1
2017-Jun-24 00:00N 25°54' W 078°00'58 4.8 110 / 191031.010.8 29.725.328.4
2017-Jun-23 12:00N 25°06' W 077°24'11516.0 100 / 191030.910.8 28.225.528.2
2017-Jun-23 04:48N 25°50' W 079°21'621.3
2017-Jun-23 04:30N 25°44' W 079°24'1121.4
2017-Jun-23 04:00N 25°34' W 079°28'1121.5
2017-Jun-23 03:30N 25°24' W 079°31'6719.2
2017-Jun-23 00:00N 24°24' W 080°06'23819.8 120 / 171029.0 5.4 28.725.628.4
2017-Jun-22 12:00N 22°54' W 084°06'20718.0 120 / 151026.8 5.4 28.225.525.4
2017-Jun-22 00:27N 20°38' W 086°54'817.9
2017-Jun-22 00:01N 20°31' W 086°58'16939.9
2017-Jun-22 00:00N 20°18' W 086°48'1529.3 1022.8 5.4 28.724.626.7
2017-Jun-21 23:28N 20°31' W 086°57'0 0.0
2017-Jun-21 22:58N 20°31' W 086°57'0 0.0
2017-Jun-21 22:28N 20°31' W 086°57'0 0.0
2017-Jun-21 21:58N 20°31' W 086°57'0 0.0
2017-Jun-21 21:28N 20°31' W 086°57'0 0.0
2017-Jun-21 20:58N 20°31' W 086°57'0 0.0
2017-Jun-21 20:28N 20°31' W 086°57'0 0.0
2017-Jun-21 19:58N 20°31' W 086°57'0 0.0
2017-Jun-21 19:28N 20°31' W 086°57'0 0.0
2017-Jun-21 18:58N 20°31' W 086°57'0 0.0
2017-Jun-21 18:28N 20°31' W 086°57'0 0.0
2017-Jun-21 17:58N 20°31' W 086°57'0 0.0
2017-Jun-21 17:30N 20°31' W 086°57'0 0.0
2017-Jun-21 17:00N 20°31' W 086°57'0 0.0
2017-Jun-21 16:30N 20°31' W 086°57'0 0.0
2017-Jun-21 16:00N 20°31' W 086°57'0 0.0
2017-Jun-21 15:30N 20°31' W 086°57'0 0.0
2017-Jun-21 15:00N 20°31' W 086°57'4 4.4
2017-Jun-21 14:00N 20°35' W 086°57'2512.6
2017-Jun-21 12:00N 20°30' W 086°30'24420.4 170 / 351020.0 2.2 27.725.026.4
2017-Jun-21 00:00N 19°30' W 082°18'58 9.6 130 / 251023.3 5.4 30.426.427.4
2017-Jun-20 18:00N 19°18' W 081°18'21512.0 140 / 201024.0 5.4 31.726.427.4
2017-Jun-20 00:00N 18°30' W 077°36'210 8.8 100 / 211024.0 5.4 29.725.328.4
2017-Jun-19 00:00N 20°42' W 074°42'39618.2 090 / 151025.0 5.4 29.426.827.4
2017-Jun-18 02:12N 25°16' W 079°53'314.5
2017-Jun-18 02:00N 25°18' W 079°54'714.3
2017-Jun-18 01:30N 25°25' W 079°57'714.0
2017-Jun-18 01:00N 25°32' W 079°59'714.1
2017-Jun-18 00:30N 25°38' W 080°02'714.3
2017-Jun-18 00:00N 25°45' W 080°03'10606.5
2017-Jun-18 00:00N 25°36' W 080°00'1225.6 100 / 201025.0 5.4 29.425.426.4
2017-Jun-17 23:30N 25°46' W 080°08'2 4.5
2017-Jun-17 23:00N 25°47' W 080°11'0 0.0
2017-Jun-17 22:29N 25°47' W 080°11'0 0.0
2017-Jun-17 21:59N 25°47' W 080°11'0 0.0
2017-Jun-17 21:29N 25°47' W 080°11'0 0.0
2017-Jun-17 20:59N 25°47' W 080°11'0 0.0
2017-Jun-17 20:29N 25°47' W 080°11'0 0.0
2017-Jun-17 19:59N 25°47' W 080°11'0 0.0
2017-Jun-17 19:29N 25°47' W 080°11'0 0.0
2017-Jun-17 18:59N 25°47' W 080°11'0 0.0
2017-Jun-17 18:28N 25°47' W 080°11'0 0.0
2017-Jun-17 17:58N 25°47' W 080°11'0 0.0
2017-Jun-17 17:28N 25°47' W 080°11'0 0.0
2017-Jun-17 16:58N 25°47' W 080°11'0 0.0
2017-Jun-17 16:30N 25°47' W 080°11'0 0.0
2017-Jun-17 15:59N 25°47' W 080°11'0 0.0
2017-Jun-17 15:29N 25°47' W 080°11'0 0.0
2017-Jun-17 14:59N 25°47' W 080°11'0 0.0
2017-Jun-17 14:30N 25°47' W 080°11'0 0.0
2017-Jun-17 13:30N 25°47' W 080°11'0 0.0
2017-Jun-17 13:00N 25°47' W 080°11'0 0.0
2017-Jun-17 12:30N 25°47' W 080°11'0 0.0
2017-Jun-17 12:00N 25°47' W 080°11'0 0.0
2017-Jun-17 11:30N 25°47' W 080°11'0 0.0
2017-Jun-17 11:00N 25°47' W 080°11'0 0.0
2017-Jun-17 10:30N 25°47' W 080°11'0 0.0
2017-Jun-17 10:00N 25°47' W 080°11'0 0.6
2017-Jun-17 09:30N 25°47' W 080°11'2 4.5
2017-Jun-17 09:00N 25°46' W 080°09'5 9.3
2017-Jun-17 08:30N 25°46' W 080°04'5 9.3
2017-Jun-17 08:00N 25°48' W 079°59'713.0
2017-Jun-17 07:30N 25°51' W 079°52'612.7
2017-Jun-17 07:00N 25°54' W 079°46'612.9
2017-Jun-17 06:30N 25°57' W 079°40'612.9
2017-Jun-17 06:00N 25°60' W 079°33'713.2
2017-Jun-17 05:30N 26°03' W 079°27'713.6
2017-Jun-17 05:00N 26°06' W 079°20'8516.9
2017-Jun-17 00:00N 25°48' W 077°48'48 4.0 170 / 151029.0 5.4 30.425.027.4
2017-Jun-16 12:00N 25°18' W 077°06'18415.3 120 / 181029.9 5.4 26.425.026.4
2017-Jun-16 00:00N 24°06' W 074°00'25721.4 090 / 131031.3 5.4
2017-Jun-15 12:00N 21°30' W 070°18'   100 / 151030.9 5.4 27.426.127.2
Track history (hours):
 
Tides and Currents Weather Stations Pressure Air Temp Water Temp Dewpoint Dewpoint Depression Visibility Wind Speed Wind Dir Waves Ship Positions

MSC Divina

Last reported at 2017-Jun-25 12:00 UTC. Time now 2017-Jun-25 15:50 UTC.
Position N 25°24' W 076°12'.

Length 333 m; draft 8.6 m.

Type: Passenger vessel. MMSI: 373178000.

Wind from 140 at 14 knots

Barometer 1033.9 mb
Air temperature 28.2 ° C
Visibility: greater than 5.4 NM
Dewpoint 25.5 ° C
Water temperature 28.2 ° C

Date/timePositionNaut miles runAvg speedWind from/ knotsBaromVisibWave heightAir tempDewpointWater temp
2017-Jun-25 12:00N 25°24' W 076°12'19217.6 140 / 141033.9 5.4 28.225.528.2
2017-Jun-25 01:05N 25°56' W 079°42'218.5
2017-Jun-25 01:00N 25°56' W 079°44'918.6
2017-Jun-25 00:31N 25°52' W 079°53'918.3
2017-Jun-25 00:01N 25°48' W 080°02'2114.7
2017-Jun-25 00:00N 25°48' W 080°00'815.7 090 / 111032.3 29.725.726.4
2017-Jun-24 23:30N 25°46' W 080°08'2 4.5
2017-Jun-24 22:57N 25°47' W 080°11'0 0.0
2017-Jun-24 22:30N 25°47' W 080°11'0 0.0
2017-Jun-24 22:00N 25°47' W 080°11'0 0.0
2017-Jun-24 21:30N 25°47' W 080°11'0 0.0
2017-Jun-24 21:00N 25°47' W 080°11'0 0.0
2017-Jun-24 20:30N 25°47' W 080°11'0 0.0
2017-Jun-24 20:00N 25°47' W 080°11'0 0.0
2017-Jun-24 19:30N 25°47' W 080°11'0 0.0
2017-Jun-24 19:00N 25°47' W 080°11'0 0.0
2017-Jun-24 18:30N 25°47' W 080°11'0 0.0
2017-Jun-24 18:00N 25°47' W 080°11'0 0.0
2017-Jun-24 17:30N 25°47' W 080°11'0 0.0
2017-Jun-24 17:00N 25°47' W 080°11'0 0.0
2017-Jun-24 16:24N 25°47' W 080°11'0 0.0
2017-Jun-24 15:57N 25°47' W 080°11'0 0.0
2017-Jun-24 15:29N 25°47' W 080°11'0 0.0
2017-Jun-24 14:59N 25°47' W 080°11'0 0.0
2017-Jun-24 13:59N 25°47' W 080°11'0 0.0
2017-Jun-24 13:29N 25°47' W 080°11'0 0.0
2017-Jun-24 12:59N 25°47' W 080°11'0 0.0
2017-Jun-24 12:29N 25°47' W 080°11'0 0.0
2017-Jun-24 11:59N 25°47' W 080°11'0 0.0
2017-Jun-24 11:26N 25°47' W 080°11'0 0.0
2017-Jun-24 10:56N 25°47' W 080°11'0 0.0
2017-Jun-24 10:30N 25°47' W 080°11'0 0.0
2017-Jun-24 10:00N 25°47' W 080°11'0 0.7
2017-Jun-24 09:30N 25°47' W 080°11'2 4.1
2017-Jun-24 09:00N 25°46' W 080°09'5 9.9
2017-Jun-24 08:30N 25°46' W 080°03'4 8.5
2017-Jun-24 08:00N 25°48' W 079°59'5 9.6
2017-Jun-24 07:30N 25°50' W 079°54'5 9.6
2017-Jun-24 07:00N 25°52' W 079°49'510.1
2017-Jun-24 06:30N 25°55' W 079°45'510.0
2017-Jun-24 06:00N 25°57' W 079°40'510.0
2017-Jun-24 05:30N 25°59' W 079°35'5 9.9
2017-Jun-24 05:00N 26°02' W 079°30'510.0
2017-Jun-24 04:30N 26°04' W 079°25'7717.1
2017-Jun-24 00:00N 25°54' W 078°00'58 4.8 110 / 191031.010.8 29.725.328.4
2017-Jun-23 12:00N 25°06' W 077°24'11516.0 100 / 191030.910.8 28.225.528.2
2017-Jun-23 04:48N 25°50' W 079°21'621.3
2017-Jun-23 04:30N 25°44' W 079°24'1121.4
2017-Jun-23 04:00N 25°34' W 079°28'1121.5
2017-Jun-23 03:30N 25°24' W 079°31'6719.2
2017-Jun-23 00:00N 24°24' W 080°06'23819.8 120 / 171029.0 5.4 28.725.628.4
2017-Jun-22 12:00N 22°54' W 084°06'20718.0 120 / 151026.8 5.4 28.225.525.4
2017-Jun-22 00:27N 20°38' W 086°54'817.9
2017-Jun-22 00:01N 20°31' W 086°58'16939.9
2017-Jun-22 00:00N 20°18' W 086°48'1529.3 1022.8 5.4 28.724.626.7
2017-Jun-21 23:28N 20°31' W 086°57'0 0.0
2017-Jun-21 22:58N 20°31' W 086°57'0 0.0
2017-Jun-21 22:28N 20°31' W 086°57'0 0.0
2017-Jun-21 21:58N 20°31' W 086°57'0 0.0
2017-Jun-21 21:28N 20°31' W 086°57'0 0.0
2017-Jun-21 20:58N 20°31' W 086°57'0 0.0
2017-Jun-21 20:28N 20°31' W 086°57'0 0.0
2017-Jun-21 19:58N 20°31' W 086°57'0 0.0
2017-Jun-21 19:28N 20°31' W 086°57'0 0.0
2017-Jun-21 18:58N 20°31' W 086°57'0 0.0
2017-Jun-21 18:28N 20°31' W 086°57'0 0.0
2017-Jun-21 17:58N 20°31' W 086°57'0 0.0
2017-Jun-21 17:30N 20°31' W 086°57'0 0.0
2017-Jun-21 17:00N 20°31' W 086°57'0 0.0
2017-Jun-21 16:30N 20°31' W 086°57'0 0.0
2017-Jun-21 16:00N 20°31' W 086°57'0 0.0
2017-Jun-21 15:30N 20°31' W 086°57'0 0.0
2017-Jun-21 15:00N 20°31' W 086°57'4 4.4
2017-Jun-21 14:00N 20°35' W 086°57'2512.6
2017-Jun-21 12:00N 20°30' W 086°30'24420.4 170 / 351020.0 2.2 27.725.026.4
2017-Jun-21 00:00N 19°30' W 082°18'58 9.6 130 / 251023.3 5.4 30.426.427.4
2017-Jun-20 18:00N 19°18' W 081°18'21512.0 140 / 201024.0 5.4 31.726.427.4
2017-Jun-20 00:00N 18°30' W 077°36'210 8.8 100 / 211024.0 5.4 29.725.328.4
2017-Jun-19 00:00N 20°42' W 074°42'39618.2 090 / 151025.0 5.4 29.426.827.4
2017-Jun-18 02:12N 25°16' W 079°53'314.5
2017-Jun-18 02:00N 25°18' W 079°54'714.3
2017-Jun-18 01:30N 25°25' W 079°57'714.0
2017-Jun-18 01:00N 25°32' W 079°59'714.1
2017-Jun-18 00:30N 25°38' W 080°02'714.3
2017-Jun-18 00:00N 25°45' W 080°03'10606.5
2017-Jun-18 00:00N 25°36' W 080°00'1225.6 100 / 201025.0 5.4 29.425.426.4
2017-Jun-17 23:30N 25°46' W 080°08'2 4.5
2017-Jun-17 23:00N 25°47' W 080°11'0 0.0
2017-Jun-17 22:29N 25°47' W 080°11'0 0.0
2017-Jun-17 21:59N 25°47' W 080°11'0 0.0
2017-Jun-17 21:29N 25°47' W 080°11'0 0.0
2017-Jun-17 20:59N 25°47' W 080°11'0 0.0
2017-Jun-17 20:29N 25°47' W 080°11'0 0.0
2017-Jun-17 19:59N 25°47' W 080°11'0 0.0
2017-Jun-17 19:29N 25°47' W 080°11'0 0.0
2017-Jun-17 18:59N 25°47' W 080°11'0 0.0
2017-Jun-17 18:28N 25°47' W 080°11'0 0.0
2017-Jun-17 17:58N 25°47' W 080°11'0 0.0
2017-Jun-17 17:28N 25°47' W 080°11'0 0.0
2017-Jun-17 16:58N 25°47' W 080°11'0 0.0
2017-Jun-17 16:30N 25°47' W 080°11'0 0.0
2017-Jun-17 15:59N 25°47' W 080°11'0 0.0
2017-Jun-17 15:29N 25°47' W 080°11'0 0.0
2017-Jun-17 14:59N 25°47' W 080°11'0 0.0
2017-Jun-17 14:30N 25°47' W 080°11'0 0.0
2017-Jun-17 13:30N 25°47' W 080°11'0 0.0
2017-Jun-17 13:00N 25°47' W 080°11'0 0.0
2017-Jun-17 12:30N 25°47' W 080°11'0 0.0
2017-Jun-17 12:00N 25°47' W 080°11'0 0.0
2017-Jun-17 11:30N 25°47' W 080°11'0 0.0
2017-Jun-17 11:00N 25°47' W 080°11'0 0.0
2017-Jun-17 10:30N 25°47' W 080°11'0 0.0
2017-Jun-17 10:00N 25°47' W 080°11'0 0.6
2017-Jun-17 09:30N 25°47' W 080°11'2 4.5
2017-Jun-17 09:00N 25°46' W 080°09'5 9.3
2017-Jun-17 08:30N 25°46' W 080°04'5 9.3
2017-Jun-17 08:00N 25°48' W 079°59'713.0
2017-Jun-17 07:30N 25°51' W 079°52'612.7
2017-Jun-17 07:00N 25°54' W 079°46'612.9
2017-Jun-17 06:30N 25°57' W 079°40'612.9
2017-Jun-17 06:00N 25°60' W 079°33'713.2
2017-Jun-17 05:30N 26°03' W 079°27'713.6
2017-Jun-17 05:00N 26°06' W 079°20'8516.9
2017-Jun-17 00:00N 25°48' W 077°48'48 4.0 170 / 151029.0 5.4 30.425.027.4
2017-Jun-16 12:00N 25°18' W 077°06'18415.3 120 / 181029.9 5.4 26.425.026.4
2017-Jun-16 00:00N 24°06' W 074°00'25721.4 090 / 131031.3 5.4
2017-Jun-15 12:00N 21°30' W 070°18'   100 / 151030.9 5.4 27.426.127.2

Dump ship's entire track history